Time;durP1;ratioP1;P1;durP2;ratioP2;P2;SDS_P1;SDS_P2;PMS_P1;PMS_P2;Temp;Humidity;BMP_temperature;BMP_pressure;BME280_temperature;BME280_humidity;BME280_pressure;Samples;Min_cycle;Max_cycle;Signal;HPM_P1;HPM_P2
2022/04/23 00:01:23;;;;;;;37.00;22.27;;;;;;;10.85;71.85;100413.72;5043926;28;20025;-67
2022/04/23 00:03:48;;;;;;;44.22;27.15;;;;;;;10.52;73.07;100416.28;5043109;28;20458;-67
2022/04/23 00:06:14;;;;;;;39.65;23.70;;;;;;;10.80;72.04;100413.59;5041905;28;20029;-67
2022/04/23 00:08:39;;;;;;;48.40;32.40;;;;;;;10.51;73.43;100412.69;5042603;28;20021;-67
2022/04/23 00:11:04;;;;;;;43.42;28.27;;;;;;;10.67;72.86;100411.13;5043879;28;20424;-66
2022/04/23 00:13:30;;;;;;;51.10;32.63;;;;;;;10.44;73.90;100424.88;5044467;28;20024;-67
2022/04/23 00:15:55;;;;;;;48.30;31.88;;;;;;;10.51;73.57;100415.44;5042703;28;20094;-67
2022/04/23 00:18:20;;;;;;;48.83;32.35;;;;;;;10.36;74.49;100412.34;5043960;28;20563;-67
2022/04/23 00:20:48;;;;;;;40.58;24.42;;;;;;;10.48;73.70;100420.56;5043921;28;20032;-67
2022/04/23 00:23:14;;;;;;;;;;;;;;;10.78;72.50;100421.22;5043895;28;20471;-67
2022/04/23 00:25:40;;;;;;;37.38;22.75;;;;;;;10.53;73.65;100420.69;5042324;28;19923;-67
2022/04/23 00:28:06;;;;;;;50.78;32.63;;;;;;;10.40;73.89;100419.03;5044875;28;20734;-67
2022/04/23 00:30:33;;;;;;;49.25;32.60;;;;;;;10.31;74.37;100420.47;5043081;28;20040;-67
2022/04/23 00:33:00;;;;;;;42.20;28.33;;;;;;;10.20;75.03;100415.78;5054347;28;20063;-67
2022/04/23 00:35:25;;;;;;;42.28;26.45;;;;;;;10.39;74.43;100418.22;5050770;28;20047;-67
2022/04/23 00:37:51;;;;;;;29.65;18.08;;;;;;;10.49;74.12;100419.50;5042096;28;20025;-66
2022/04/23 00:40:17;;;;;;;34.85;22.92;;;;;;;10.68;73.15;100403.69;5042172;28;20021;-67
2022/04/23 00:42:56;;;;;;;46.42;30.92;;;;;;;10.26;74.83;100414.88;5043439;28;20039;-66
2022/04/23 00:45:26;;;;;;;47.72;32.30;;;;;;;10.02;76.40;100424.97;5042015;28;20028;-67
2022/04/23 00:47:52;;;;;;;34.33;22.20;;;;;;;10.25;74.90;100422.28;5043787;28;20086;-67
2022/04/23 00:50:21;;;;;;;36.75;25.48;;;;;;;10.06;76.47;100426.16;5042222;28;20021;-67
2022/04/23 00:52:48;;;;;;;42.72;30.35;;;;;;;10.31;75.04;100421.31;5042002;28;20067;-67
2022/04/23 00:55:14;;;;;;;29.67;19.60;;;;;;;10.34;74.71;100417.22;5042283;28;20120;-66
2022/04/23 00:57:40;;;;;;;41.08;30.70;;;;;;;10.15;75.87;100413.75;5043610;28;20033;-66
2022/04/23 01:00:08;;;;;;;40.17;30.25;;;;;;;10.14;75.96;100420.34;5043707;28;20464;-66
2022/04/23 01:02:33;;;;;;;;;;;;;;;10.03;76.05;100418.41;5043614;28;20029;-67
2022/04/23 01:04:59;;;;;;;35.42;28.10;;;;;;;9.92;76.89;100422.81;5039057;28;20283;-67
2022/04/23 01:07:24;;;;;;;36.63;27.58;;;;;;;9.88;77.27;100430.69;5041068;28;20032;-67
2022/04/23 01:09:51;;;;;;;35.75;28.75;;;;;;;9.94;77.33;100428.91;5043313;28;20037;-66
2022/04/23 01:12:17;;;;;;;34.63;27.50;;;;;;;9.87;77.21;100430.91;5038812;28;20024;-67
2022/04/23 01:15:05;;;;;;;33.58;24.60;;;;;;;9.97;77.63;100428.41;5038398;28;20045;-67
2022/04/23 01:17:31;;;;;;;26.17;21.17;;;;;;;9.76;78.05;100423.50;5043262;28;20036;-67
2022/04/23 01:19:56;;;;;;;32.35;25.33;;;;;;;10.00;76.80;100424.38;5044091;28;20468;-67
2022/04/23 01:22:24;;;;;;;25.83;21.80;;;;;;;10.01;77.09;100431.53;5041123;28;20506;-66
2022/04/23 01:24:51;;;;;;;28.20;19.08;;;;;;;9.79;78.54;100423.03;5040831;28;20108;-67
2022/04/23 01:27:16;;;;;;;31.80;24.75;;;;;;;9.78;78.28;100422.22;5043761;28;20104;-67
2022/04/23 01:29:42;;;;;;;34.05;25.38;;;;;;;9.62;79.03;100422.88;5043995;28;20029;-67
2022/04/23 01:32:07;;;;;;;27.42;22.02;;;;;;;9.79;78.14;100418.38;5044712;28;20029;-66
2022/04/23 01:34:32;;;;;;;31.38;24.40;;;;;;;9.72;78.48;100425.03;5043401;28;20025;-66
2022/04/23 01:36:58;;;;;;;28.45;23.92;;;;;;;9.86;77.99;100421.00;5040688;28;20053;-66
2022/04/23 01:39:23;;;;;;;25.98;21.40;;;;;;;9.81;78.08;100427.22;5042313;28;20029;-66
2022/04/23 01:41:49;;;;;;;30.55;25.42;;;;;;;9.72;78.87;100420.38;5041626;28;20808;-67
2022/04/23 01:44:15;;;;;;;32.97;26.83;;;;;;;9.68;79.07;100413.72;5042245;28;20058;-66
2022/04/23 01:46:40;;;;;;;29.27;24.23;;;;;;;9.49;80.26;100425.84;5042082;28;20403;-66
2022/04/23 01:49:06;;;;;;;27.70;22.02;;;;;;;9.54;79.95;100420.47;5044215;28;20130;-66
2022/04/23 01:51:31;;;;;;;27.65;21.48;;;;;;;9.54;79.75;100425.97;5039148;28;20407;-67
2022/04/23 01:53:56;;;;;;;31.80;27.65;;;;;;;9.48;80.22;100427.75;5042833;28;20033;-67
2022/04/23 01:56:21;;;;;;;31.85;27.65;;;;;;;9.39;80.77;100426.41;5043272;28;20486;-67
2022/04/23 01:58:47;;;;;;;32.10;27.77;;;;;;;9.53;79.80;100419.66;5043690;28;20023;-68
2022/04/23 02:01:12;;;;;;;31.67;26.50;;;;;;;9.72;79.29;100428.63;5041521;28;20103;-67
2022/04/23 02:03:37;;;;;;;24.20;19.08;;;;;;;10.02;77.70;100423.06;5045569;28;20021;-66
2022/04/23 02:06:03;;;;;;;35.83;28.00;;;;;;;9.42;81.10;100428.66;5046497;28;20029;-67
2022/04/23 02:08:28;;;;;;;32.03;28.15;;;;;;;9.31;81.76;100424.81;5044926;28;20025;-67
2022/04/23 02:10:54;;;;;;;35.10;29.42;;;;;;;9.49;80.89;100428.56;5046070;28;20033;-67
2022/04/23 02:13:20;;;;;;;35.42;30.67;;;;;;;9.51;80.51;100424.50;5046407;28;20541;-67
2022/04/23 02:15:45;;;;;;;33.80;26.75;;;;;;;9.45;80.77;100433.69;5046367;28;20060;-67
2022/04/23 02:18:11;;;;;;;27.85;20.80;;;;;;;9.60;80.29;100428.59;5046678;28;20051;-67
2022/04/23 02:20:36;;;;;;;34.33;29.40;;;;;;;9.47;80.93;100428.78;5045429;28;20080;-67
2022/04/23 02:23:03;;;;;;;34.53;29.80;;;;;;;9.24;82.33;100432.28;5044855;28;20476;-67
2022/04/23 02:25:28;;;;;;;37.45;30.98;;;;;;;9.16;82.96;100437.25;5045265;28;20139;-67
2022/04/23 02:27:53;;;;;;;33.10;26.95;;;;;;;9.12;83.32;100433.28;5045838;28;20040;-67
2022/04/23 02:30:20;;;;;;;38.95;31.38;;;;;;;9.27;82.17;100433.72;5045654;28;20029;-67
2022/04/23 02:32:47;;;;;;;38.67;31.73;;;;;;;9.27;82.49;100437.28;5047766;28;20047;-66
2022/04/23 02:35:14;;;;;;;33.10;25.90;;;;;;;9.44;80.96;100434.75;5046364;28;20031;-67
2022/04/23 02:37:42;;;;;;;32.28;23.20;;;;;;;9.47;80.85;100430.69;5044874;28;20040;-67
2022/04/23 02:40:08;;;;;;;40.65;31.90;;;;;;;9.15;82.86;100438.31;5045406;28;20037;-66
2022/04/23 02:42:36;;;;;;;37.80;30.88;;;;;;;9.23;82.45;100430.63;5044290;28;20037;-67
2022/04/23 02:45:02;;;;;;;29.80;22.02;;;;;;;9.29;81.86;100434.34;5044402;28;20040;-67
2022/04/23 02:47:29;;;;;;;40.33;33.08;;;;;;;9.19;82.60;100434.06;5045915;28;20094;-67
2022/04/23 02:49:54;;;;;;;40.83;33.58;;;;;;;9.36;81.51;100424.09;5046035;28;20363;-66
2022/04/23 02:52:20;;;;;;;42.25;30.75;;;;;;;9.29;81.78;100434.34;5043618;28;20033;-66
2022/04/23 02:54:45;;;;;;;43.13;29.50;;;;;;;9.40;81.59;100435.44;5046390;28;20025;-67
2022/04/23 02:57:11;;;;;;;38.17;28.35;;;;;;;9.47;81.33;100430.69;5054340;22;20021;-67
2022/04/23 02:59:37;;;;;;;43.40;34.42;;;;;;;9.17;82.80;100422.47;5042755;28;20048;-67
2022/04/23 03:02:03;;;;;;;40.70;29.45;;;;;;;9.36;81.68;100435.06;5044568;28;20530;-68
2022/04/23 03:04:29;;;;;;;42.15;31.35;;;;;;;9.20;82.70;100428.34;5044429;28;20102;-67
2022/04/23 03:06:54;;;;;;;35.30;25.63;;;;;;;9.18;82.63;100425.00;5045616;28;20398;-67
2022/04/23 03:09:20;;;;;;;38.80;28.63;;;;;;;9.33;81.85;100408.97;5044663;28;20021;-67
2022/04/23 03:11:45;;;;;;;39.67;26.55;;;;;;;9.47;81.25;100419.72;5044630;28;20029;-67
2022/04/23 03:14:10;;;;;;;36.80;26.75;;;;;;;9.47;81.09;100417.00;5044735;28;20021;-66
2022/04/23 03:16:36;;;;;;;42.53;31.40;;;;;;;9.07;83.65;100421.16;5045202;28;20041;-67
2022/04/23 03:19:01;;;;;;;43.83;34.85;;;;;;;9.28;82.38;100417.06;5043660;28;20037;-67
2022/04/23 03:21:26;;;;;;;49.33;38.10;;;;;;;8.97;84.46;100420.00;5044081;28;20477;-67
2022/04/23 03:23:52;;;;;;;41.20;30.30;;;;;;;9.33;82.48;100419.13;5044910;28;20033;-67
2022/04/23 03:26:17;;;;;;;47.53;36.45;;;;;;;9.01;84.03;100426.69;5044438;28;20023;-67
2022/04/23 03:28:42;;;;;;;46.58;38.17;;;;;;;9.03;84.21;100411.72;5045179;28;20135;-67
2022/04/23 03:31:10;;;;;;;46.83;36.53;;;;;;;9.27;82.57;100415.38;5042779;28;20041;-67
2022/04/23 03:33:35;;;;;;;49.17;37.17;;;;;;;9.04;83.92;100418.03;5044807;28;20021;-67
2022/04/23 03:36:02;;;;;;;41.88;26.08;;;;;;;8.98;84.63;100418.97;5044636;28;20099;-67
2022/04/23 03:38:27;;;;;;;49.08;39.22;;;;;;;9.03;84.23;100414.47;5043970;28;20032;-67
2022/04/23 03:40:55;;;;;;;51.20;35.20;;;;;;;9.02;84.76;100414.66;5044109;28;20016;-67
2022/04/23 03:43:21;;;;;;;52.60;36.90;;;;;;;9.59;81.99;100406.91;5043022;28;20513;-67
2022/04/23 03:45:47;;;;;;;46.65;34.00;;;;;;;9.58;81.26;100400.59;5045139;28;20036;-67
2022/04/23 03:48:14;;;;;;;50.08;38.67;;;;;;;9.29;83.09;100401.47;5044993;28;20468;-67
2022/04/23 03:50:39;;;;;;;51.47;40.92;;;;;;;9.15;84.29;100413.66;5042981;28;20067;-65
2022/04/23 03:53:04;;;;;;;43.85;30.48;;;;;;;9.07;85.04;100403.84;5044406;28;20414;-67
2022/04/23 03:55:31;;;;;;;48.17;38.55;;;;;;;9.10;84.78;100414.38;5044605;28;20067;-67
2022/04/23 03:57:56;;;;;;;31.60;23.20;;;;;;;9.17;84.60;100404.13;5042326;28;20068;-66
2022/04/23 04:00:21;;;;;;;55.20;40.58;;;;;;;9.10;84.77;100400.66;5042517;28;20064;-66
2022/04/23 04:02:48;;;;;;;53.65;41.88;;;;;;;8.97;85.56;100392.63;5044705;28;20067;-67
2022/04/23 04:05:14;;;;;;;53.13;40.47;;;;;;;9.03;85.13;100389.81;5042822;28;20041;-67
2022/04/23 04:07:46;;;;;;;47.45;31.77;;;;;;;9.30;83.88;100393.00;5044154;28;20522;-65
2022/04/23 04:10:15;;;;;;;43.45;28.83;;;;;;;9.27;83.73;100389.88;5041830;28;20017;-66
2022/04/23 04:12:41;;;;;;;52.03;41.05;;;;;;;8.94;85.44;100393.94;5042902;28;20029;-66
2022/04/23 04:15:07;;;;;;;53.60;39.90;;;;;;;8.96;85.52;100397.25;5045081;28;20029;-66
2022/04/23 04:17:34;;;;;;;55.75;41.20;;;;;;;8.94;85.68;100399.41;5044560;28;20033;-66
2022/04/23 04:20:01;;;;;;;33.97;23.10;;;;;;;9.31;83.60;100389.19;5042660;28;20055;-66
2022/04/23 04:22:26;;;;;;;51.20;40.70;;;;;;;9.00;85.35;100395.72;5043526;28;20040;-67
2022/04/23 04:24:51;;;;;;;54.35;39.90;;;;;;;8.95;85.59;100384.63;5042722;28;20017;-66
2022/04/23 04:27:17;;;;;;;52.45;34.28;;;;;;;9.00;85.61;100392.16;5044645;28;20444;-66
2022/04/23 04:29:43;;;;;;;44.63;32.50;;;;;;;9.36;84.52;100381.09;5043389;28;20372;-66
2022/04/23 04:32:08;;;;;;;55.83;42.00;;;;;;;9.01;85.61;100382.88;5028806;28;20420;-67
2022/04/23 04:34:34;;;;;;;53.50;40.03;;;;;;;9.08;84.96;100383.63;5024277;28;20067;-66
2022/04/23 04:37:04;;;;;;;47.70;34.80;;;;;;;9.26;84.24;100385.47;5025781;28;20816;-65
2022/04/23 04:39:31;;;;;;;51.25;37.60;;;;;;;9.27;83.85;100379.75;5038937;28;20028;-67
2022/04/23 04:41:56;;;;;;;57.05;41.65;;;;;;;9.04;85.01;100377.78;5043258;28;20025;-66
2022/04/23 04:44:21;;;;;;;55.85;40.63;;;;;;;9.02;85.50;100382.66;5040922;28;20438;-66
2022/04/23 04:46:47;;;;;;;51.15;35.58;;;;;;;9.25;84.30;100379.16;5041544;28;20067;-66
2022/04/23 04:49:12;;;;;;;51.38;39.88;;;;;;;8.98;85.54;100386.94;5043959;28;20041;-66
2022/04/23 04:51:37;;;;;;;39.53;26.42;;;;;;;9.19;84.86;100390.22;5043781;28;20387;-66
2022/04/23 04:54:06;;;;;;;34.47;24.17;;;;;;;9.34;83.91;100387.88;5043596;28;20021;-66
2022/04/23 04:56:32;;;;;;;52.35;39.95;;;;;;;9.00;85.66;100394.91;5041410;28;20040;-65
2022/04/23 04:58:58;;;;;;;51.30;36.50;;;;;;;9.02;85.57;100396.34;5043728;28;20041;-66
2022/04/23 05:01:23;;;;;;;53.83;39.85;;;;;;;9.12;84.94;100405.91;5043687;28;20056;-66
2022/04/23 05:03:49;;;;;;;52.58;39.47;;;;;;;9.25;84.32;100392.84;5043066;28;20452;-66
2022/04/23 05:06:14;;;;;;;48.83;33.05;;;;;;;9.06;85.50;100396.72;5042385;28;20036;-67
2022/04/23 05:08:39;;;;;;;45.63;31.45;;;;;;;9.50;83.44;100400.09;5041487;28;20056;-64
2022/04/23 05:11:05;;;;;;;51.03;38.42;;;;;;;9.28;84.70;100408.84;5041068;28;20120;-67
2022/04/23 05:13:31;;;;;;;50.47;37.22;;;;;;;9.12;85.63;100412.22;5042678;28;20032;-67
2022/04/23 05:15:57;;;;;;;54.28;41.90;;;;;;;9.10;85.77;100403.41;5040146;28;20028;-67
2022/04/23 05:18:22;;;;;;;56.88;41.60;;;;;;;9.11;86.03;100407.81;5042195;28;20467;-67
2022/04/23 05:20:48;;;;;;;38.03;28.45;;;;;;;9.49;83.94;100401.16;5042462;28;20045;-67
2022/04/23 05:23:14;;;;;;;55.15;41.97;;;;;;;9.24;85.70;100404.06;5042722;28;20021;-67
2022/04/23 05:25:40;;;;;;;51.45;40.83;;;;;;;9.37;84.98;100398.38;5042428;28;20120;-66
2022/04/23 05:28:05;;;;;;;42.50;28.17;;;;;;;9.57;84.07;100403.53;5042219;28;20025;-67
2022/04/23 05:30:31;;;;;;;53.72;40.22;;;;;;;9.44;84.70;100404.59;5042625;28;20108;-67
2022/04/23 05:32:56;;;;;;;52.75;40.78;;;;;;;9.62;83.29;100400.94;5043703;28;20021;-67
2022/04/23 05:35:21;;;;;;;51.58;39.97;;;;;;;9.71;83.31;100396.78;5038175;28;20041;-66
2022/04/23 05:37:47;;;;;;;52.92;41.05;;;;;;;9.50;84.64;100402.81;5044601;28;20053;-67
2022/04/23 05:40:12;;;;;;;51.58;38.88;;;;;;;9.75;83.25;100406.22;5045965;28;20067;-67
2022/04/23 05:42:38;;;;;;;50.10;38.80;;;;;;;9.64;83.66;100409.78;5048259;28;20025;-66
2022/04/23 05:45:03;;;;;;;37.80;29.70;;;;;;;10.04;82.55;100409.94;5044450;28;20044;-67
2022/04/23 05:47:28;;;;;;;42.58;34.85;;;;;;;10.24;81.48;100398.66;5045573;28;20211;-67
2022/04/23 05:49:54;;;;;;;51.05;37.38;;;;;;;10.06;81.94;100412.44;5046602;28;20029;-67
2022/04/23 05:52:19;;;;;;;35.10;23.67;;;;;;;10.10;81.81;100403.50;5045985;28;20429;-67
2022/04/23 05:54:44;;;;;;;52.88;40.28;;;;;;;9.91;82.67;100403.84;5042071;28;20033;-66
2022/04/23 05:57:09;;;;;;;52.13;39.88;;;;;;;9.84;83.16;100403.97;5046248;28;20486;-66
2022/04/23 05:59:35;;;;;;;52.40;40.10;;;;;;;9.92;82.85;100394.53;5045856;28;20041;-67
2022/04/23 06:02:00;;;;;;;46.90;34.38;;;;;;;9.98;82.95;100405.38;5041341;28;20024;-67
2022/04/23 06:04:26;;;;;;;76.78;32.97;;;;;;;10.18;81.38;100402.28;5045610;28;20047;-67
2022/04/23 06:06:52;;;;;;;51.40;40.35;;;;;;;10.03;82.10;100399.19;5043215;28;20120;-67
2022/04/23 06:09:17;;;;;;;45.60;32.42;;;;;;;10.50;79.67;100388.22;5045150;28;20331;-66
2022/04/23 06:11:42;;;;;;;51.60;40.40;;;;;;;10.17;81.59;100397.88;5046122;28;20086;-67
2022/04/23 06:14:08;;;;;;;52.45;40.38;;;;;;;10.31;81.88;100391.13;5046072;28;20025;-67
2022/04/23 06:16:36;;;;;;;55.35;38.90;;;;;;;10.40;80.05;100394.34;5045262;28;20033;-67
2022/04/23 06:19:01;;;;;;;51.13;39.27;;;;;;;10.20;81.75;100396.59;5045426;28;20331;-67
2022/04/23 06:21:26;;;;;;;50.97;40.28;;;;;;;10.26;81.42;100388.25;5045004;28;20287;-67
2022/04/23 06:23:51;;;;;;;52.75;40.50;;;;;;;10.32;80.90;100394.69;5045164;28;20051;-67
2022/04/23 06:26:17;;;;;;;44.72;29.23;;;;;;;10.62;80.77;100383.53;5045019;28;20044;-67
2022/04/23 06:28:42;;;;;;;48.80;37.33;;;;;;;10.63;79.59;100385.19;5045420;28;20407;-67
2022/04/23 06:31:07;;;;;;;39.85;30.42;;;;;;;10.97;77.69;100388.09;5046945;28;20111;-66
2022/04/23 06:33:33;;;;;;;54.83;41.72;;;;;;;10.62;79.56;100383.53;5045182;28;20094;-67
2022/04/23 06:35:59;;;;;;;51.17;39.13;;;;;;;10.75;78.85;100396.19;5043728;28;20483;-67
2022/04/23 06:38:24;;;;;;;51.97;37.55;;;;;;;10.73;79.34;100393.66;5045638;28;20082;-67
2022/04/23 06:40:49;;;;;;;50.28;40.67;;;;;;;10.71;79.13;100390.31;5045025;28;20034;-66
2022/04/23 06:43:14;;;;;;;49.90;40.38;;;;;;;10.78;79.94;100390.19;5044529;28;20064;-67
2022/04/23 06:45:40;;;;;;;49.95;40.08;;;;;;;10.94;79.18;100389.41;5046047;28;20044;-67
2022/04/23 06:48:05;;;;;;;54.85;33.50;;;;;;;11.23;78.87;100389.41;5046838;28;20029;-67
2022/04/23 06:50:32;;;;;;;50.50;39.88;;;;;;;11.44;76.71;100381.28;5044452;28;20021;-68
2022/04/23 06:53:02;;;;;;;49.90;37.88;;;;;;;11.49;76.81;100391.53;5043736;28;20079;-69
2022/04/23 06:55:28;;;;;;;48.25;37.53;;;;;;;11.67;75.15;100390.50;5036535;28;20022;-69
2022/04/23 06:57:54;;;;;;;48.17;38.17;;;;;;;11.94;74.67;100385.19;5037806;28;20053;-69
2022/04/23 07:00:22;;;;;;;44.92;34.30;;;;;;;12.25;73.95;100375.47;5043195;28;20043;-68
2022/04/23 07:02:47;;;;;;;46.38;36.38;;;;;;;12.75;71.60;100374.47;5044358;28;20422;-68
2022/04/23 07:05:12;;;;;;;48.47;36.45;;;;;;;13.05;70.29;100382.28;5044101;28;20040;-68
2022/04/23 07:07:38;;;;;;;37.08;29.02;;;;;;;13.34;67.78;100374.63;5044552;28;20047;-69
2022/04/23 07:10:04;;;;;;;43.72;35.83;;;;;;;13.20;69.20;100374.19;5043928;28;20037;-69
2022/04/23 07:12:29;;;;;;;46.00;36.70;;;;;;;13.09;69.41;100369.66;5042083;28;20475;-69
2022/04/23 07:14:54;;;;;;;41.70;32.75;;;;;;;13.06;68.97;100372.09;5044341;28;20025;-69
2022/04/23 07:17:24;;;;;;;38.58;28.02;;;;;;;13.53;68.61;100361.28;5044434;28;20078;-69
2022/04/23 07:19:51;;;;;;;44.70;36.45;;;;;;;13.28;68.11;100361.91;5044332;28;20021;-69
2022/04/23 07:22:17;;;;;;;43.53;36.17;;;;;;;13.11;68.03;100372.97;5043045;28;20033;-70
2022/04/23 07:24:42;;;;;;;41.30;35.63;;;;;;;13.09;67.92;100368.81;5045007;28;20031;-70
2022/04/23 07:27:07;;;;;;;45.25;35.50;;;;;;;13.22;69.09;100365.66;5044893;28;20056;-70
2022/04/23 07:29:33;;;;;;;43.10;35.28;;;;;;;13.42;67.55;100365.88;5042192;28;20029;-69
2022/04/23 07:31:58;;;;;;;33.53;26.48;;;;;;;13.74;66.41;100359.56;5044244;28;20404;-70
2022/04/23 07:39:51;;;;;;;44.38;35.75;;;;;;;13.64;68.18;100351.19;5044510;28;20044;-70
2022/04/23 07:42:16;;;;;;;38.33;30.67;;;;;;;13.97;65.57;100348.13;5044212;28;20385;-70
2022/04/23 07:44:42;;;;;;;42.83;35.25;;;;;;;13.85;64.90;100349.41;5044116;28;20048;-70
2022/04/23 07:47:07;;;;;;;39.38;33.67;;;;;;;14.02;64.58;100353.66;5039101;28;20057;-70
2022/04/23 07:49:32;;;;;;;42.15;34.60;;;;;;;14.36;64.56;100353.34;5042866;28;20028;-70
2022/04/23 07:51:58;;;;;;;43.78;34.20;;;;;;;14.48;62.75;100356.72;5041768;28;20032;-70
2022/04/23 07:54:23;;;;;;;35.22;28.73;;;;;;;14.57;61.73;100334.97;5043413;28;20523;-70
2022/04/23 07:56:48;;;;;;;36.47;30.42;;;;;;;14.42;61.63;100346.72;5041802;28;20036;-70
2022/04/23 07:59:14;;;;;;;35.70;28.80;;;;;;;14.24;61.90;100338.88;5043452;28;20037;-70
2022/04/23 08:01:39;;;;;;;39.85;33.03;;;;;;;14.11;63.59;100342.97;5041602;28;20514;-70
2022/04/23 08:04:06;;;;;;;41.28;34.03;;;;;;;14.12;64.14;100343.78;5043352;28;20056;-70
2022/04/23 08:06:32;;;;;;;41.95;33.35;;;;;;;14.20;63.90;100346.06;5042466;28;20460;-67
2022/04/23 08:08:59;;;;;;;36.88;31.33;;;;;;;14.48;62.36;100340.16;5043755;28;20279;-70
2022/04/23 08:11:25;;;;;;;29.25;22.50;;;;;;;14.45;62.06;100332.38;5043153;28;20036;-70
2022/04/23 08:13:51;;;;;;;41.95;33.92;;;;;;;14.12;63.07;100339.09;5042205;28;20024;-70
2022/04/23 08:16:17;;;;;;;39.58;30.10;;;;;;;14.24;62.71;100333.34;5042556;28;20029;-70
2022/04/23 08:18:42;;;;;;;35.28;27.02;;;;;;;14.39;63.12;100333.44;5043310;28;20033;-70
2022/04/23 08:21:07;;;;;;;39.35;32.45;;;;;;;14.39;61.97;100333.44;5042255;28;20487;-70
2022/04/23 08:23:33;;;;;;;33.30;29.42;;;;;;;14.77;61.59;100315.69;5039391;28;20041;-70
2022/04/23 08:26:02;;;;;;;38.30;33.40;;;;;;;14.48;61.74;100326.34;5043449;28;20448;-70
2022/04/23 08:31:15;;;;;;;38.55;33.47;;;;;;;14.69;61.73;100329.19;5043008;28;20090;-70
2022/04/23 08:33:58;;;;;;;38.70;31.48;;;;;;;14.85;59.85;100319.88;5043274;28;20036;-69
2022/04/23 08:36:26;;;;;;;39.22;34.20;;;;;;;14.93;60.79;100318.50;5041571;28;20486;-69
2022/04/23 08:38:51;;;;;;;40.17;32.45;;;;;;;14.96;60.84;100326.25;5030621;28;20486;-70
2022/04/23 08:41:17;;;;;;;38.53;32.95;;;;;;;14.89;58.79;100320.97;5041204;28;20037;-70
2022/04/23 08:43:42;;;;;;;36.10;27.77;;;;;;;14.97;59.43;100316.84;5042306;28;20033;-70
2022/04/23 08:46:07;;;;;;;36.40;30.45;;;;;;;15.08;59.71;100324.06;5042643;28;20017;-69
2022/04/23 08:48:37;;;;;;;37.13;30.42;;;;;;;15.31;59.03;100322.72;5042547;28;20044;-70
2022/04/23 08:51:05;;;;;;;39.53;32.40;;;;;;;15.21;59.22;100334.59;5042570;28;20020;-70
2022/04/23 08:53:33;;;;;;;39.55;33.47;;;;;;;15.42;58.79;100335.47;5042052;28;20044;-69
2022/04/23 08:55:59;;;;;;;51.17;33.28;;;;;;;15.56;57.02;100321.88;5041115;28;20041;-70
2022/04/23 08:58:24;;;;;;;38.30;33.08;;;;;;;15.73;57.24;100330.78;5040527;28;20045;-69
2022/04/23 09:00:49;;;;;;;37.58;31.80;;;;;;;16.27;57.10;100332.94;5042810;28;20036;-69
2022/04/23 09:03:16;;;;;;;37.95;31.58;;;;;;;16.74;55.23;100317.00;5041789;28;20099;-69
2022/04/23 09:05:43;;;;;;;35.75;31.75;;;;;;;17.34;52.90;100320.50;5041405;28;20033;-70
2022/04/23 09:08:09;;;;;;;35.47;29.33;;;;;;;17.56;52.03;100314.50;5041360;28;20045;-70
2022/04/23 09:10:47;;;;;;;36.60;32.15;;;;;;;17.73;52.76;100326.03;5041627;28;20529;-70
2022/04/23 09:13:30;;;;;;;36.28;31.60;;;;;;;19.17;48.77;100329.69;5034441;28;20032;-70
2022/04/23 09:24:15;;;;;;;35.30;31.60;;;;;;;20.05;46.15;100326.34;5042504;28;20107;-71
2022/04/23 09:26:41;;;;;;;35.70;31.52;;;;;;;20.25;44.46;100328.75;5034415;28;20036;-70
2022/04/23 09:29:18;;;;;;;35.85;31.80;;;;;;;20.31;46.32;100330.28;5042358;28;20033;-69
2022/04/23 09:31:43;;;;;;;37.28;33.38;;;;;;;19.66;45.63;100338.69;5041634;28;20071;-70
2022/04/23 09:34:21;;;;;;;36.50;32.50;;;;;;;19.67;46.44;100344.00;5040129;28;20044;-69
2022/04/23 09:36:48;;;;;;;37.60;33.08;;;;;;;20.72;43.58;100335.91;5037981;28;20040;-69
2022/04/23 09:39:13;;;;;;;38.35;33.85;;;;;;;19.89;44.65;100342.50;5040972;28;20369;-69
2022/04/23 09:41:38;;;;;;;40.72;35.95;;;;;;;18.87;47.07;100342.06;5041774;28;20067;-70
2022/04/23 09:44:10;;;;;;;39.67;35.37;;;;;;;19.40;47.35;100339.06;5040401;28;20036;-70
2022/04/23 09:46:46;;;;;;;29.95;24.83;;;;;;;20.95;44.17;100324.84;5040778;28;20294;-69
2022/04/23 09:49:18;;;;;;;36.78;32.40;;;;;;;22.01;42.30;100320.63;5041824;28;20036;-71
2022/04/23 09:51:59;;;;;;;36.75;32.85;;;;;;;22.53;41.55;100332.91;5040418;28;20025;-70
2022/04/23 09:54:27;;;;;;;35.95;32.25;;;;;;;22.65;39.92;100329.47;5042693;28;20241;-69
2022/04/23 09:56:53;;;;;;;36.45;31.45;;;;;;;22.33;39.00;100341.03;5040834;28;20031;-70
2022/04/23 09:59:18;;;;;;;37.83;33.78;;;;;;;21.62;40.57;100329.72;5042662;28;20414;-70
2022/04/23 10:01:44;;;;;;;35.53;31.73;;;;;;;22.41;39.79;100327.09;5034995;28;20033;-70
2022/04/23 10:04:12;;;;;;;34.92;31.17;;;;;;;22.66;39.15;100331.16;5040947;28;20782;-70
2022/04/23 10:06:41;;;;;;;38.03;33.97;;;;;;;20.94;41.17;100332.38;5041142;28;20033;-69
2022/04/23 10:09:08;;;;;;;31.60;25.95;;;;;;;20.81;42.02;100326.81;5041329;28;20098;-68
2022/04/23 10:11:37;;;;;;;37.25;33.25;;;;;;;20.93;42.55;100327.09;5038821;28;20051;-69
2022/04/23 10:14:04;;;;;;;38.05;33.92;;;;;;;21.20;41.74;100324.25;5043135;28;20383;-69
2022/04/23 10:16:30;;;;;;;38.25;34.15;;;;;;;21.68;41.17;100323.69;5042371;28;20037;-69
2022/04/23 10:18:57;;;;;;;37.00;33.05;;;;;;;21.09;40.88;100320.06;5042619;28;20033;-69
2022/04/23 10:21:31;;;;;;;35.72;31.92;;;;;;;21.61;40.72;100314.94;5039695;28;20068;-69
2022/04/23 10:24:22;;;;;;;38.90;34.17;;;;;;;21.88;40.99;100310.34;5044102;28;20530;-69
2022/04/23 10:26:50;;;;;;;37.78;33.88;;;;;;;21.29;41.43;100315.13;5046333;28;20036;-69
2022/04/23 10:29:22;;;;;;;36.17;32.35;;;;;;;21.75;41.57;100304.50;5046898;28;20017;-70
2022/04/23 10:32:16;;;;;;;34.25;29.83;;;;;;;22.53;39.28;100298.50;5044749;28;20407;-69
2022/04/23 10:34:43;;;;;;;37.33;32.33;;;;;;;22.11;38.79;100306.41;5045863;28;20033;-69
2022/04/23 10:37:29;;;;;;;38.08;33.55;;;;;;;22.44;39.86;100309.66;5044916;28;20036;-69
2022/04/23 10:39:57;;;;;;;39.92;35.67;;;;;;;23.08;38.51;100297.16;5044796;28;20064;-69
2022/04/23 10:42:25;;;;;;;38.15;33.95;;;;;;;23.86;36.25;100300.78;5044945;28;20037;-69
2022/04/23 10:44:54;;;;;;;40.40;34.47;;;;;;;23.28;36.96;100297.34;5046729;28;20033;-68
2022/04/23 10:47:39;;;;;;;38.35;34.35;;;;;;;23.73;38.72;100302.63;5042720;28;20043;-69
2022/04/23 10:50:22;;;;;;;31.70;24.50;;;;;;;23.84;36.15;100291.88;5026489;28;20141;-69
2022/04/23 10:52:49;;;;;;;38.47;34.28;;;;;;;23.28;36.40;100308.56;5044562;28;20403;-70
2022/04/23 10:55:16;;;;;;;32.75;29.42;;;;;;;22.91;37.67;100292.34;5040332;28;20033;-70
2022/04/23 10:57:51;;;;;;;39.17;35.00;;;;;;;22.21;39.47;100300.53;5039436;28;20048;-68
2022/04/23 11:00:19;;;;;;;34.75;29.17;;;;;;;21.54;38.99;100303.34;5043352;28;20025;-68
2022/04/23 11:02:49;;;;;;;37.97;33.97;;;;;;;21.54;41.26;100299.72;5042331;28;20032;-69
2022/04/23 11:13:48;;;;;;;40.13;35.28;;;;;;;22.14;40.65;100290.94;5045444;28;20178;-68
2022/04/23 11:16:16;;;;;;;37.95;34.03;;;;;;;21.83;40.39;100282.50;5044592;28;20124;-67
2022/04/23 11:18:42;;;;;;;38.75;34.70;;;;;;;21.41;41.19;100293.06;5044723;28;20086;-68
2022/04/23 11:21:15;;;;;;;40.40;32.63;;;;;;;21.39;42.47;100289.75;5044287;28;20087;-69
2022/04/23 11:23:45;;;;;;;40.97;36.00;;;;;;;20.81;42.42;100293.31;5044945;28;20095;-69
2022/04/23 11:26:18;;;;;;;39.65;35.30;;;;;;;20.86;44.25;100284.84;5044879;28;20036;-69
2022/04/23 11:28:44;;;;;;;40.92;36.67;;;;;;;20.99;43.17;100281.19;5044894;28;20025;-69
2022/04/23 11:31:15;;;;;;;40.90;36.53;;;;;;;21.11;42.74;100281.47;5040202;28;20146;-69
2022/04/23 11:33:56;;;;;;;31.77;26.75;;;;;;;21.35;41.67;100280.38;5044041;28;20479;-70
2022/04/23 11:36:26;;;;;;;41.63;37.28;;;;;;;20.83;42.67;100280.69;5041718;28;20025;-69
2022/04/23 11:38:53;;;;;;;41.75;37.35;;;;;;;20.30;42.55;100277.63;5035316;28;20072;-68